createdAt,value
2022-12-04T00:01:51.456Z,-0.07
2022-12-04T00:04:28.346Z,-0.08
2022-12-04T00:07:04.369Z,-0.08
2022-12-04T00:09:39.045Z,-0.11
2022-12-04T00:12:15.736Z,-0.11
2022-12-04T00:15:23.929Z,-0.11
2022-12-04T00:17:50.830Z,-0.10
2022-12-04T00:20:25.342Z,-0.06
2022-12-04T00:23:01.968Z,-0.05
2022-12-04T00:25:41.382Z,-0.08
2022-12-04T00:28:15.952Z,-0.07
2022-12-04T00:30:50.839Z,-0.07
2022-12-04T00:33:24.801Z,-0.09
2022-12-04T00:36:09.161Z,-0.09
2022-12-04T00:38:43.405Z,-0.10
2022-12-04T00:41:20.426Z,-0.09
2022-12-04T00:43:54.851Z,-0.09
2022-12-04T00:46:29.083Z,-0.10
2022-12-04T00:49:03.514Z,-0.10
2022-12-04T00:51:37.994Z,-0.09
2022-12-04T00:54:12.190Z,-0.10
2022-12-04T00:56:46.225Z,-0.11
2022-12-04T00:59:22.617Z,-0.11
2022-12-04T01:01:56.885Z,-0.10
2022-12-04T01:04:30.983Z,-0.14
2022-12-04T01:07:05.523Z,-0.16
2022-12-04T01:09:40.036Z,-0.15
2022-12-04T01:12:14.916Z,-0.17
2022-12-04T01:14:52.061Z,-0.23
2022-12-04T01:17:26.282Z,-0.20
2022-12-04T01:20:01.677Z,-0.20
2022-12-04T01:22:37.330Z,-0.20
2022-12-04T01:25:21.448Z,-0.20
2022-12-04T01:27:57.594Z,-0.20
2022-12-04T01:30:33.448Z,-0.22
2022-12-04T01:33:09.974Z,-0.21
2022-12-04T01:35:54.079Z,-0.24
2022-12-04T01:38:26.966Z,-0.23
2022-12-04T01:41:01.491Z,-0.27
2022-12-04T01:43:38.088Z,-0.26
2022-12-04T01:46:13.219Z,-0.26
2022-12-04T01:48:52.987Z,-0.24
2022-12-04T01:51:32.221Z,-0.25
2022-12-04T01:54:11.071Z,-0.25
2022-12-04T01:56:49.102Z,-0.24
2022-12-04T01:59:28.901Z,-0.23
2022-12-04T02:02:09.739Z,-0.26
2022-12-04T02:04:45.125Z,-0.24
2022-12-04T02:07:19.010Z,-0.26
2022-12-04T02:09:56.550Z,-0.26
2022-12-04T02:12:35.815Z,-0.34
2022-12-04T02:15:18.508Z,-0.31
2022-12-04T02:18:11.925Z,-0.31
2022-12-04T02:20:55.401Z,-0.32
2022-12-04T02:23:47.643Z,-0.34
2022-12-04T02:26:44.321Z,-0.31
2022-12-04T02:29:26.563Z,-0.34
2022-12-04T02:32:08.308Z,-0.35
2022-12-04T02:34:47.814Z,-0.34
2022-12-04T02:37:26.353Z,-0.32
2022-12-04T02:40:04.780Z,-0.34
2022-12-04T02:42:44.698Z,-0.32
2022-12-04T02:45:22.568Z,-0.32
2022-12-04T02:47:57.626Z,-0.31
2022-12-04T02:50:33.129Z,-0.33
2022-12-04T02:53:11.422Z,-0.29
2022-12-04T02:55:49.450Z,-0.22
2022-12-04T02:58:28.182Z,-0.20
2022-12-04T03:01:05.598Z,-0.21
2022-12-04T03:03:40.748Z,-0.19
2022-12-04T03:06:17.993Z,-0.19
2022-12-04T03:08:56.422Z,-0.16
2022-12-04T03:11:33.760Z,-0.17
2022-12-04T03:14:14.754Z,-0.18
2022-12-04T03:16:50.758Z,-0.18
2022-12-04T03:19:30.667Z,-0.16
2022-12-04T03:22:07.556Z,-0.14
2022-12-04T03:24:45.632Z,-0.17
2022-12-04T03:27:26.337Z,-0.13
2022-12-04T03:30:06.023Z,-0.22
2022-12-04T03:32:46.707Z,-0.18
2022-12-04T03:35:25.403Z,-0.19
2022-12-04T03:38:05.477Z,-0.19
2022-12-04T03:40:45.184Z,-0.20
2022-12-04T03:43:25.617Z,-0.21
2022-12-04T03:46:06.192Z,-0.24
2022-12-04T03:48:50.164Z,-0.24
2022-12-04T03:51:24.455Z,-0.25
2022-12-04T03:54:04.547Z,-0.29
2022-12-04T03:56:42.061Z,-0.28
2022-12-04T03:59:21.484Z,-0.28
2022-12-04T04:01:58.490Z,-0.29
2022-12-04T04:04:37.822Z,-0.30
2022-12-04T04:07:16.371Z,-0.31
2022-12-04T04:09:53.943Z,-0.31
2022-12-04T04:12:34.064Z,-0.31
2022-12-04T04:15:29.531Z,-0.33
2022-12-04T04:18:23.242Z,-0.33
2022-12-04T04:21:19.320Z,-0.34
2022-12-04T04:24:12.181Z,-0.36
2022-12-04T04:26:49.237Z,-0.33
2022-12-04T04:29:23.543Z,-0.35
2022-12-04T04:32:02.125Z,-0.36
2022-12-04T04:34:44.445Z,-0.35
2022-12-04T04:37:27.292Z,-0.36
2022-12-04T04:40:09.253Z,-0.35
2022-12-04T04:42:51.887Z,-0.36
2022-12-04T04:46:04.574Z,-0.38
2022-12-04T04:49:08.206Z,-0.37
2022-12-04T04:52:09.454Z,-0.39
2022-12-04T04:54:49.599Z,-0.38
2022-12-04T04:57:33.251Z,-0.38
2022-12-04T05:00:11.409Z,-0.37
2022-12-04T05:02:49.465Z,-0.37
2022-12-04T05:05:23.865Z,-0.36
2022-12-04T05:07:58.378Z,-0.35
2022-12-04T05:10:31.975Z,-0.35
2022-12-04T05:13:05.996Z,-0.35
2022-12-04T05:15:40.279Z,-0.34
2022-12-04T05:18:15.138Z,-0.35
2022-12-04T05:20:49.009Z,-0.34
2022-12-04T05:23:23.074Z,-0.36
2022-12-04T05:26:03.933Z,-0.35
2022-12-04T05:28:37.805Z,-0.33
2022-12-04T05:31:12.057Z,-0.33
2022-12-04T05:33:45.920Z,-0.35
2022-12-04T05:36:21.465Z,-0.36
2022-12-04T05:38:55.717Z,-0.37
2022-12-04T05:41:30.621Z,-0.35
2022-12-04T05:44:04.704Z,-0.35
2022-12-04T05:46:38.269Z,-0.35
2022-12-04T05:49:12.120Z,-0.35
2022-12-04T05:51:46.129Z,-0.33
2022-12-04T05:54:20.446Z,-0.33
2022-12-04T05:56:54.008Z,-0.34
2022-12-04T05:59:28.402Z,-0.35
2022-12-04T06:02:02.556Z,-0.33
2022-12-04T06:04:36.640Z,-0.35
2022-12-04T06:07:11.492Z,-0.33
2022-12-04T06:09:45.714Z,-0.34
2022-12-04T06:12:19.755Z,-0.35
2022-12-04T06:14:53.746Z,-0.34
2022-12-04T06:17:28.086Z,-0.33
2022-12-04T06:20:05.229Z,-0.32
2022-12-04T06:22:42.100Z,-0.30
2022-12-04T06:25:16.767Z,-0.29
2022-12-04T06:27:51.981Z,-0.29
2022-12-04T06:30:25.940Z,-0.30
2022-12-04T06:33:00.074Z,-0.30
2022-12-04T06:35:34.426Z,-0.30
2022-12-04T06:38:08.745Z,-0.31
2022-12-04T06:40:45.699Z,-0.33
2022-12-04T06:43:20.712Z,-0.32
2022-12-04T06:46:05.467Z,-0.31
2022-12-04T06:48:39.352Z,-0.29
2022-12-04T06:51:16.181Z,-0.27
2022-12-04T06:53:50.637Z,-0.26
2022-12-04T06:56:25.557Z,-0.25
2022-12-04T06:59:01.876Z,-0.17
2022-12-04T07:01:37.272Z,-0.16
2022-12-04T07:04:11.792Z,-0.16
2022-12-04T07:06:46.076Z,-0.24
2022-12-04T07:09:20.447Z,-0.25
2022-12-04T07:11:55.696Z,-0.25
2022-12-04T07:14:29.456Z,-0.24
2022-12-04T07:17:03.947Z,-0.14
2022-12-04T07:19:39.012Z,-0.14
2022-12-04T07:22:12.944Z,-0.16
2022-12-04T07:24:52.893Z,-0.14
2022-12-04T07:27:27.121Z,-0.18
2022-12-04T07:30:01.121Z,-0.19
2022-12-04T07:32:35.225Z,-0.12
2022-12-04T07:35:11.213Z,-0.16
2022-12-04T07:37:45.960Z,-0.10
2022-12-04T07:40:20.212Z,-0.07
2022-12-04T07:42:57.149Z,-0.05
2022-12-04T07:45:31.177Z,-0.11
2022-12-04T07:48:05.087Z,-0.10
2022-12-04T07:50:36.671Z,-0.08
2022-12-04T07:53:10.890Z,-0.07
2022-12-04T07:55:45.121Z,0.04
2022-12-04T07:58:19.352Z,0.04
2022-12-04T08:00:53.219Z,0.07
2022-12-04T08:03:27.522Z,0.03
2022-12-04T08:06:04.250Z,0.09
2022-12-04T08:08:39.298Z,0.09
2022-12-04T08:11:14.950Z,-0.02
2022-12-04T08:13:49.250Z,0.01
2022-12-04T08:16:23.788Z,0.03
2022-12-04T08:18:58.921Z,-0.08
2022-12-04T08:21:35.335Z,-0.02
2022-12-04T08:24:11.822Z,-0.05
2022-12-04T08:26:47.032Z,-0.06
2022-12-04T08:29:21.473Z,-0.06
2022-12-04T08:31:55.378Z,-0.06
2022-12-04T08:34:29.706Z,-0.02
2022-12-04T08:37:04.117Z,0.08
2022-12-04T08:39:38.675Z,0.16
2022-12-04T08:42:12.711Z,0.07
2022-12-04T08:44:47.423Z,0.04
2022-12-04T08:47:24.840Z,0.03
2022-12-04T08:49:59.500Z,0.03
2022-12-04T08:52:33.625Z,0.03
2022-12-04T08:55:08.682Z,0.04
2022-12-04T08:57:42.198Z,0.05
2022-12-04T09:00:16.105Z,0.07
2022-12-04T09:02:55.029Z,0.04
2022-12-04T09:05:29.405Z,0.06
2022-12-04T09:08:04.103Z,0.12
2022-12-04T09:10:40.954Z,0.13
2022-12-04T09:13:19.135Z,0.13
2022-12-04T09:15:59.565Z,0.17
2022-12-04T09:18:36.868Z,0.17
2022-12-04T09:21:21.244Z,0.18
2022-12-04T09:23:57.851Z,0.20
2022-12-04T09:26:36.560Z,0.22
2022-12-04T09:29:13.232Z,0.26
2022-12-04T09:31:48.078Z,0.28
2022-12-04T09:34:22.516Z,0.26
2022-12-04T09:36:59.625Z,0.28
2022-12-04T09:39:34.371Z,0.33
2022-12-04T09:42:32.101Z,0.32
2022-12-04T09:45:16.787Z,0.31
2022-12-04T09:47:56.663Z,0.33
2022-12-04T09:50:38.111Z,0.35
2022-12-04T09:53:18.615Z,0.36
2022-12-04T09:56:01.709Z,0.38
2022-12-04T09:58:43.789Z,0.39
2022-12-04T10:01:26.391Z,0.38
2022-12-04T10:04:05.972Z,0.42
2022-12-04T10:06:50.229Z,0.48
2022-12-04T10:09:30.047Z,0.47
2022-12-04T10:12:11.522Z,0.49
2022-12-04T10:15:11.626Z,0.53
2022-12-04T10:18:06.108Z,0.50
2022-12-04T10:20:54.250Z,0.54
2022-12-04T10:23:38.454Z,0.55
2022-12-04T10:26:18.160Z,0.55
2022-12-04T10:28:56.812Z,0.53
2022-12-04T10:31:31.871Z,0.61
2022-12-04T10:34:11.050Z,0.65
2022-12-04T10:36:48.156Z,0.64
2022-12-04T10:39:28.969Z,0.58
2022-12-04T10:42:08.760Z,0.60
2022-12-04T10:44:48.453Z,0.67
2022-12-04T10:47:24.711Z,0.66
2022-12-04T10:50:06.837Z,0.69
2022-12-04T10:52:40.936Z,0.70
2022-12-04T10:55:15.872Z,0.69
2022-12-04T10:57:51.180Z,0.66
2022-12-04T11:00:34.336Z,0.70
2022-12-04T11:03:24.353Z,0.67
2022-12-04T11:06:02.500Z,0.69
2022-12-04T11:08:41.291Z,0.69
2022-12-04T11:11:17.011Z,0.65
2022-12-04T11:13:51.695Z,0.70
2022-12-04T11:16:40.163Z,0.67
2022-12-04T11:19:29.117Z,0.70
2022-12-04T11:22:06.735Z,0.71
2022-12-04T11:24:43.467Z,0.73
2022-12-04T11:27:26.418Z,0.73
2022-12-04T11:30:03.422Z,0.78
2022-12-04T11:32:38.317Z,0.80
2022-12-04T11:35:23.572Z,0.78
2022-12-04T11:38:00.526Z,0.80
2022-12-04T11:40:35.018Z,0.84
2022-12-04T11:43:15.351Z,0.84
2022-12-04T11:46:00.456Z,0.91
2022-12-04T11:48:44.551Z,0.90
2022-12-04T11:51:32.742Z,0.89
2022-12-04T11:54:15.257Z,0.89
2022-12-04T11:56:57.548Z,0.87
2022-12-04T11:59:58.437Z,0.90
2022-12-04T12:02:48.924Z,0.91
2022-12-04T12:05:45.229Z,0.92
2022-12-04T12:08:32.860Z,0.95
2022-12-04T12:11:24.166Z,0.98
2022-12-04T12:14:09.241Z,0.97
2022-12-04T12:16:58.552Z,1.00
2022-12-04T12:19:55.643Z,1.01
2022-12-04T12:22:44.093Z,1.04
2022-12-04T12:25:24.596Z,1.02
2022-12-04T12:28:21.083Z,1.05
2022-12-04T12:31:11.547Z,1.08
2022-12-04T12:33:54.150Z,1.10
2022-12-04T12:36:38.755Z,1.11
2022-12-04T12:39:24.038Z,1.14
2022-12-04T12:42:04.294Z,1.15
2022-12-04T12:44:55.482Z,1.18
2022-12-04T12:47:39.864Z,1.21
2022-12-04T12:50:24.181Z,1.22
2022-12-04T12:53:00.778Z,1.22
2022-12-04T12:55:38.756Z,1.22
2022-12-04T12:58:26.521Z,1.24
2022-12-04T13:01:08.986Z,1.28
2022-12-04T13:03:52.966Z,1.26
2022-12-04T13:06:28.899Z,1.24
2022-12-04T13:09:08.998Z,1.22
2022-12-04T13:11:44.257Z,1.28
2022-12-04T13:14:18.946Z,1.30
2022-12-04T13:16:58.264Z,1.30
2022-12-04T13:19:36.040Z,1.30
2022-12-04T13:22:21.176Z,1.30
2022-12-04T13:25:29.012Z,1.27
2022-12-04T13:28:18.324Z,1.26
2022-12-04T13:31:03.055Z,1.24
2022-12-04T13:34:15.832Z,1.24
2022-12-04T13:37:25.772Z,1.23
2022-12-04T13:40:37.992Z,1.16
2022-12-04T13:43:37.486Z,1.15
2022-12-04T13:46:36.663Z,1.12
2022-12-04T13:49:30.627Z,1.09
2022-12-04T13:52:06.266Z,1.08
2022-12-04T13:54:40.979Z,1.10
2022-12-04T13:57:26.027Z,1.10
2022-12-04T14:00:26.708Z,1.07
2022-12-04T14:03:02.986Z,1.00
2022-12-04T14:05:45.261Z,0.98
2022-12-04T14:08:33.002Z,0.91
2022-12-04T14:11:11.322Z,0.90
2022-12-04T14:13:51.737Z,0.90
2022-12-04T14:16:33.631Z,0.90
2022-12-04T14:19:30.856Z,0.86
2022-12-04T14:22:05.756Z,0.73
2022-12-04T14:24:41.816Z,0.74
2022-12-04T14:27:37.120Z,0.63
2022-12-04T14:30:23.279Z,0.63
2022-12-04T14:33:08.150Z,0.60
2022-12-04T14:35:51.126Z,0.56
2022-12-04T14:38:26.250Z,0.49
2022-12-04T14:41:02.500Z,0.42
2022-12-04T14:43:41.194Z,0.42
2022-12-04T14:46:26.636Z,0.42
2022-12-04T14:49:11.268Z,0.37
2022-12-04T14:51:52.158Z,0.32
2022-12-04T14:54:34.836Z,0.33
2022-12-04T14:57:26.361Z,0.31
2022-12-04T15:00:02.569Z,0.31
2022-12-04T15:02:42.120Z,0.32
2022-12-04T15:05:22.594Z,0.29
2022-12-04T15:07:59.679Z,0.29
2022-12-04T15:10:55.360Z,0.29
2022-12-04T15:13:35.758Z,0.26
2022-12-04T15:16:22.896Z,0.25
2022-12-04T15:19:02.288Z,0.20
2022-12-04T15:21:43.022Z,0.20
2022-12-04T15:24:25.139Z,0.21
2022-12-04T15:27:00.181Z,0.17
2022-12-04T15:29:48.781Z,0.16
2022-12-04T15:32:33.090Z,0.14
2022-12-04T15:35:15.144Z,0.15
2022-12-04T15:37:51.167Z,0.11
2022-12-04T15:40:29.707Z,0.13
2022-12-04T15:43:28.602Z,0.14
2022-12-04T15:46:14.628Z,0.14
2022-12-04T15:48:49.183Z,0.10
2022-12-04T15:51:25.306Z,0.11
2022-12-04T15:53:59.490Z,0.07
2022-12-04T15:56:35.051Z,0.05
2022-12-04T15:59:09.023Z,0.08
2022-12-04T16:01:45.054Z,0.11
2022-12-04T16:04:27.263Z,0.07
2022-12-04T16:07:01.879Z,0.07
2022-12-04T16:09:37.789Z,0.08
2022-12-04T16:12:22.534Z,0.04
2022-12-04T16:14:58.907Z,0.02
2022-12-04T16:17:37.178Z,0.04
2022-12-04T16:20:13.533Z,0.00
2022-12-04T16:22:47.546Z,-0.05
2022-12-04T16:25:24.638Z,0.00
2022-12-04T16:27:59.104Z,-0.01
2022-12-04T16:30:38.375Z,-0.01
2022-12-04T16:33:15.199Z,-0.05
2022-12-04T16:35:52.152Z,-0.09
2022-12-04T16:38:27.525Z,-0.16
2022-12-04T16:41:02.060Z,-0.14
2022-12-04T16:43:36.123Z,-0.12
2022-12-04T16:46:14.735Z,-0.13
2022-12-04T16:48:49.904Z,-0.14
2022-12-04T16:51:25.345Z,-0.08
2022-12-04T16:54:00.340Z,-0.09
2022-12-04T16:56:34.897Z,-0.10
2022-12-04T16:59:11.933Z,-0.13
2022-12-04T17:01:51.066Z,-0.15
2022-12-04T17:04:24.832Z,-0.17
2022-12-04T17:06:59.701Z,-0.17
2022-12-04T17:09:33.429Z,-0.20
2022-12-04T17:12:07.953Z,-0.22
2022-12-04T17:14:42.936Z,-0.23
2022-12-04T17:17:23.032Z,-0.31
2022-12-04T17:20:10.881Z,-0.31
2022-12-04T17:23:21.834Z,-0.35
2022-12-04T17:26:11.691Z,-0.36
2022-12-04T17:28:50.049Z,-0.41
2022-12-04T17:31:34.060Z,-0.44
2022-12-04T17:34:12.765Z,-0.48
2022-12-04T17:36:47.089Z,-0.51
2022-12-04T17:39:21.242Z,-0.50
2022-12-04T17:41:56.538Z,-0.49
2022-12-04T17:44:30.823Z,-0.47
2022-12-04T17:47:05.068Z,-0.46
2022-12-04T17:49:39.276Z,-0.46
2022-12-04T17:52:15.627Z,-0.47
2022-12-04T17:54:52.002Z,-0.51
2022-12-04T17:57:27.428Z,-0.53
2022-12-04T18:00:08.588Z,-0.53
2022-12-04T18:03:16.996Z,-0.54
2022-12-04T18:05:55.112Z,-0.57
2022-12-04T18:08:32.225Z,-0.53
2022-12-04T18:11:08.577Z,-0.53
2022-12-04T18:13:42.617Z,-0.58
2022-12-04T18:16:17.383Z,-0.56
2022-12-04T18:18:51.784Z,-0.54
2022-12-04T18:21:26.399Z,-0.55
2022-12-04T18:24:03.400Z,-0.49
2022-12-04T18:26:40.940Z,-0.48
2022-12-04T18:29:18.321Z,-0.50
2022-12-04T18:31:53.131Z,-0.47
2022-12-04T18:34:27.577Z,-0.51
2022-12-04T18:37:04.758Z,-0.56
2022-12-04T18:39:40.160Z,-0.57
2022-12-04T18:42:18.052Z,-0.58
2022-12-04T18:44:52.829Z,-0.61
2022-12-04T18:47:27.610Z,-0.62
2022-12-04T18:50:02.063Z,-0.58
2022-12-04T18:52:39.336Z,-0.58
2022-12-04T18:55:13.998Z,-0.61
2022-12-04T18:57:48.457Z,-0.64
2022-12-04T19:00:26.725Z,-0.63
2022-12-04T19:03:06.217Z,-0.59
2022-12-04T19:05:53.168Z,-0.59
2022-12-04T19:08:38.681Z,-0.60
2022-12-04T19:11:41.624Z,-0.61
2022-12-04T19:14:32.790Z,-0.61
2022-12-04T19:17:12.907Z,-0.58
2022-12-04T19:19:58.454Z,-0.59
2022-12-04T19:22:39.631Z,-0.60
2022-12-04T19:25:22.384Z,-0.58
2022-12-04T19:28:05.759Z,-0.60
2022-12-04T19:30:47.943Z,-0.62
2022-12-04T19:33:26.166Z,-0.60
2022-12-04T19:36:07.030Z,-0.61
2022-12-04T19:38:41.845Z,-0.62
2022-12-04T19:41:18.992Z,-0.67
2022-12-04T19:43:57.635Z,-0.66
2022-12-04T19:46:34.373Z,-0.68
2022-12-04T19:49:09.561Z,-0.67
2022-12-04T19:51:45.078Z,-0.69
2022-12-04T19:54:23.227Z,-0.69
2022-12-04T19:57:00.315Z,-0.69
2022-12-04T19:59:37.710Z,-0.69
2022-12-04T20:02:14.384Z,-0.65
2022-12-04T20:04:49.471Z,-0.65
2022-12-04T20:07:29.872Z,-0.61
2022-12-04T20:10:04.497Z,-0.59
2022-12-04T20:12:38.756Z,-0.63
2022-12-04T20:15:14.088Z,-0.61
2022-12-04T20:17:48.843Z,-0.60
2022-12-04T20:20:24.099Z,-0.63
2022-12-04T20:22:58.715Z,-0.58
2022-12-04T20:25:32.653Z,-0.61
2022-12-04T20:28:11.511Z,-0.61
2022-12-04T20:30:50.661Z,-0.60
2022-12-04T20:33:24.600Z,-0.62
2022-12-04T20:35:56.552Z,-0.64
2022-12-04T20:38:30.927Z,-0.68
2022-12-04T20:41:10.835Z,-0.68
2022-12-04T20:43:49.437Z,-0.65
2022-12-04T20:46:27.113Z,-0.68
2022-12-04T20:49:02.980Z,-0.65
2022-12-04T20:51:39.203Z,-0.65
2022-12-04T20:54:21.282Z,-0.67
2022-12-04T20:56:57.743Z,-0.70
2022-12-04T20:59:34.187Z,-0.68
2022-12-04T21:02:09.785Z,-0.69
2022-12-04T21:04:45.241Z,-0.71
2022-12-04T21:07:21.654Z,-0.68
2022-12-04T21:09:55.939Z,-0.70
2022-12-04T21:12:46.851Z,-0.67
2022-12-04T21:15:38.153Z,-0.68
2022-12-04T21:18:12.378Z,-0.69
2022-12-04T21:20:46.996Z,-0.73
2022-12-04T21:23:21.356Z,-0.70
2022-12-04T21:25:56.847Z,-0.69
2022-12-04T21:28:31.943Z,-0.69
2022-12-04T21:31:07.555Z,-0.71
2022-12-04T21:33:41.162Z,-0.73
2022-12-04T21:36:18.000Z,-0.77
2022-12-04T21:38:53.503Z,-0.81
2022-12-04T21:41:44.362Z,-0.81
2022-12-04T21:44:26.744Z,-0.81
2022-12-04T21:47:05.801Z,-0.81
2022-12-04T21:49:42.210Z,-0.81
2022-12-04T21:52:16.377Z,-0.78
2022-12-04T21:54:53.629Z,-0.78
2022-12-04T21:57:29.586Z,-0.79
2022-12-04T22:00:04.877Z,-0.81
2022-12-04T22:02:40.576Z,-0.80
2022-12-04T22:05:14.511Z,-0.80
2022-12-04T22:07:48.492Z,-0.79
2022-12-04T22:10:24.875Z,-0.81
2022-12-04T22:12:59.529Z,-0.80
2022-12-04T22:15:58.514Z,-0.80
2022-12-04T22:18:34.579Z,-0.79
2022-12-04T22:21:14.298Z,-0.78
2022-12-04T22:23:48.930Z,-0.78
2022-12-04T22:26:23.577Z,-0.77
2022-12-04T22:28:58.280Z,-0.75
2022-12-04T22:31:34.801Z,-0.76
2022-12-04T22:34:09.478Z,-0.76
2022-12-04T22:36:43.887Z,-0.72
2022-12-04T22:39:17.988Z,-0.72
2022-12-04T22:41:51.882Z,-0.77
2022-12-04T22:44:26.359Z,-0.78
2022-12-04T22:47:00.112Z,-0.78
2022-12-04T22:49:35.952Z,-0.77
2022-12-04T22:52:09.741Z,-0.76
2022-12-04T22:54:44.073Z,-0.74
2022-12-04T22:57:18.347Z,-0.75
2022-12-04T22:59:53.656Z,-0.76
2022-12-04T23:02:29.702Z,-0.75
2022-12-04T23:05:04.313Z,-0.75
2022-12-04T23:07:38.250Z,-0.74
2022-12-04T23:10:13.105Z,-0.72
2022-12-04T23:12:47.324Z,-0.73
2022-12-04T23:15:22.277Z,-0.71
2022-12-04T23:17:56.277Z,-0.70
2022-12-04T23:20:30.438Z,-0.70
2022-12-04T23:23:04.448Z,-0.71
2022-12-04T23:25:43.405Z,-0.72
2022-12-04T23:28:17.834Z,-0.74
2022-12-04T23:30:51.853Z,-0.70
2022-12-04T23:33:26.020Z,-0.70
2022-12-04T23:36:01.531Z,-0.71
2022-12-04T23:38:37.393Z,-0.72
2022-12-04T23:41:13.684Z,-0.74
2022-12-04T23:43:49.012Z,-0.77
2022-12-04T23:46:30.250Z,-0.75
2022-12-04T23:49:04.820Z,-0.73
2022-12-04T23:51:39.097Z,-0.75
2022-12-04T23:54:12.775Z,-0.78
2022-12-04T23:56:47.412Z,-0.74
2022-12-04T23:59:22.518Z,-0.74
